TAF SPRU
SPRU 072300Z 0800/0824 15011KT 8000 NSC TX20/0819Z TN17/0811Z BECMG 0808/0811 15005KT 5000 BR FEW008 BECMG 0815/0817 17012KT 8000 NSC=
METAR SPRU
WC SPRU
WS SPRU
WV SPRU